<?xml version="1.0" encoding="UTF-8" standalone="no" ?><gpx xmlns="http://www.topografix.com/GPX/1/1" xmlns:gpxx="http://www.garmin.com/xmlschemas/GpxExtensions/v3" xmlns:wptx1="http://www.garmin.com/xmlschemas/WaypointExtension/v1" xmlns:gpxtpx="http://www.garmin.com/xmlschemas/TrackPointExtension/v1" creator="GuideVTT.com" version="1.1" xmlns:xsi="http://www.w3.org/2001/XMLSchema-instance" xsi:schemaLocation="http://www.topografix.com/GPX/1/1 http://www.topografix.com/GPX/1/1/gpx.xsd http://www.garmin.com/xmlschemas/GpxExtensions/v3 http://www8.garmin.com/xmlschemas/GpxExtensionsv3.xsd http://www.garmin.com/xmlschemas/WaypointExtension/v1 http://www8.garmin.com/xmlschemas/WaypointExtensionv1.xsd http://www.garmin.com/xmlschemas/TrackPointExtension/v1 http://www.garmin.com/xmlschemas/TrackPointExtensionv1.xsd">
<metadata><link href="http://www.garmin.com"><text>Garmin International</text></link><time>2013-06-22T15:13:50Z</time></metadata>
<trk><name>28sept07.gpx</name><extensions><gpxx:TrackExtension><gpxx:DisplayColor>Cyan</gpxx:DisplayColor></gpxx:TrackExtension></extensions><trkseg>
<trkpt lat="43.08568300" lon="0.28211700"><ele>365</ele><time>2007-09-28T11:37:53Z</time></trkpt>
<trkpt lat="43.08603300" lon="0.28138300"><ele>368</ele><time>2007-09-28T11:38:16Z</time></trkpt>
<trkpt lat="43.08630000" lon="0.28098300"><ele>365</ele><time>2007-09-28T11:38:28Z</time></trkpt>
<trkpt lat="43.08760000" lon="0.28008300"><ele>361</ele><time>2007-09-28T11:39:03Z</time></trkpt>
<trkpt lat="43.08870000" lon="0.27963300"><ele>358</ele><time>2007-09-28T11:39:31Z</time></trkpt>
<trkpt lat="43.08931700" lon="0.27910000"><ele>357</ele><time>2007-09-28T11:39:50Z</time></trkpt>
<trkpt lat="43.08936700" lon="0.27928300"><ele>358</ele><time>2007-09-28T11:40:11Z</time></trkpt>
<trkpt lat="43.08945000" lon="0.27951700"><ele>357</ele><time>2007-09-28T11:40:27Z</time></trkpt>
<trkpt lat="43.08956700" lon="0.27968300"><ele>352</ele><time>2007-09-28T11:40:43Z</time></trkpt>
<trkpt lat="43.08976700" lon="0.28001700"><ele>361</ele><time>2007-09-28T11:41:32Z</time></trkpt>
<trkpt lat="43.08995000" lon="0.28015000"><ele>378</ele><time>2007-09-28T11:42:10Z</time></trkpt>
<trkpt lat="43.09025000" lon="0.28031700"><ele>378</ele><time>2007-09-28T11:42:35Z</time></trkpt>
<trkpt lat="43.09088300" lon="0.28055000"><ele>381</ele><time>2007-09-28T11:43:30Z</time></trkpt>
<trkpt lat="43.09125000" lon="0.28070000"><ele>383</ele><time>2007-09-28T11:44:17Z</time></trkpt>
<trkpt lat="43.09221700" lon="0.28101700"><ele>392</ele><time>2007-09-28T11:45:45Z</time></trkpt>
<trkpt lat="43.09215000" lon="0.28090000"><ele>403</ele><time>2007-09-28T11:46:30Z</time></trkpt>
<trkpt lat="43.09198300" lon="0.28080000"><ele>403</ele><time>2007-09-28T11:46:57Z</time></trkpt>
<trkpt lat="43.09176700" lon="0.28070000"><ele>403</ele><time>2007-09-28T11:47:18Z</time></trkpt>
<trkpt lat="43.09168300" lon="0.28053300"><ele>404</ele><time>2007-09-28T11:47:31Z</time></trkpt>
<trkpt lat="43.09158300" lon="0.28028300"><ele>414</ele><time>2007-09-28T11:47:43Z</time></trkpt>
<trkpt lat="43.09136700" lon="0.28021700"><ele>419</ele><time>2007-09-28T11:48:12Z</time></trkpt>
<trkpt lat="43.09123300" lon="0.28008300"><ele>426</ele><time>2007-09-28T11:48:28Z</time></trkpt>
<trkpt lat="43.09115000" lon="0.27985000"><ele>443</ele><time>2007-09-28T11:48:49Z</time></trkpt>
<trkpt lat="43.09116700" lon="0.27963300"><ele>449</ele><time>2007-09-28T11:49:18Z</time></trkpt>
<trkpt lat="43.09130000" lon="0.27938300"><ele>449</ele><time>2007-09-28T11:49:58Z</time></trkpt>
<trkpt lat="43.09141700" lon="0.27926700"><ele>448</ele><time>2007-09-28T11:50:20Z</time></trkpt>
<trkpt lat="43.09160000" lon="0.27916700"><ele>451</ele><time>2007-09-28T11:50:53Z</time></trkpt>
<trkpt lat="43.09176700" lon="0.27905000"><ele>450</ele><time>2007-09-28T11:51:30Z</time></trkpt>
<trkpt lat="43.09195000" lon="0.27915000"><ele>454</ele><time>2007-09-28T11:51:48Z</time></trkpt>
<trkpt lat="43.09203300" lon="0.27955000"><ele>452</ele><time>2007-09-28T11:52:15Z</time></trkpt>
<trkpt lat="43.09225000" lon="0.27968300"><ele>450</ele><time>2007-09-28T11:52:31Z</time></trkpt>
<trkpt lat="43.09251700" lon="0.27968300"><ele>451</ele><time>2007-09-28T11:52:48Z</time></trkpt>
<trkpt lat="43.09275000" lon="0.27968300"><ele>456</ele><time>2007-09-28T11:53:04Z</time></trkpt>
<trkpt lat="43.09293300" lon="0.27961700"><ele>461</ele><time>2007-09-28T11:53:21Z</time></trkpt>
<trkpt lat="43.09323300" lon="0.27940000"><ele>466</ele><time>2007-09-28T11:53:55Z</time></trkpt>
<trkpt lat="43.09338300" lon="0.27920000"><ele>474</ele><time>2007-09-28T11:54:09Z</time></trkpt>
<trkpt lat="43.09373300" lon="0.27921700"><ele>473</ele><time>2007-09-28T11:54:34Z</time></trkpt>
<trkpt lat="43.09395000" lon="0.27931700"><ele>476</ele><time>2007-09-28T11:54:49Z</time></trkpt>
<trkpt lat="43.09420000" lon="0.27940000"><ele>475</ele><time>2007-09-28T11:55:05Z</time></trkpt>
<trkpt lat="43.09441700" lon="0.27943300"><ele>476</ele><time>2007-09-28T11:55:14Z</time></trkpt>
<trkpt lat="43.09475000" lon="0.27956700"><ele>483</ele><time>2007-09-28T11:55:33Z</time></trkpt>
<trkpt lat="43.09475000" lon="0.27933300"><ele>492</ele><time>2007-09-28T11:56:16Z</time></trkpt>
<trkpt lat="43.09475000" lon="0.27915000"><ele>494</ele><time>2007-09-28T11:56:37Z</time></trkpt>
<trkpt lat="43.09475000" lon="0.27886700"><ele>494</ele><time>2007-09-28T11:57:01Z</time></trkpt>
<trkpt lat="43.09476700" lon="0.27846700"><ele>493</ele><time>2007-09-28T11:57:20Z</time></trkpt>
<trkpt lat="43.09471700" lon="0.27803300"><ele>494</ele><time>2007-09-28T11:57:36Z</time></trkpt>
<trkpt lat="43.09448300" lon="0.27745000"><ele>499</ele><time>2007-09-28T11:57:53Z</time></trkpt>
<trkpt lat="43.09436700" lon="0.27678300"><ele>496</ele><time>2007-09-28T11:58:10Z</time></trkpt>
<trkpt lat="43.09433300" lon="0.27645000"><ele>493</ele><time>2007-09-28T11:58:16Z</time></trkpt>
<trkpt lat="43.09460000" lon="0.27450000"><ele>477</ele><time>2007-09-28T11:58:42Z</time></trkpt>
<trkpt lat="43.09501700" lon="0.27336700"><ele>471</ele><time>2007-09-28T11:58:55Z</time></trkpt>
<trkpt lat="43.09516700" lon="0.27260000"><ele>470</ele><time>2007-09-28T11:59:03Z</time></trkpt>
<trkpt lat="43.09525000" lon="0.27176700"><ele>465</ele><time>2007-09-28T11:59:13Z</time></trkpt>
<trkpt lat="43.09521700" lon="0.27136700"><ele>465</ele><time>2007-09-28T11:59:18Z</time></trkpt>
<trkpt lat="43.09528300" lon="0.27101700"><ele>464</ele><time>2007-09-28T11:59:23Z</time></trkpt>
<trkpt lat="43.09516700" lon="0.27068300"><ele>477</ele><time>2007-09-28T11:59:31Z</time></trkpt>
<trkpt lat="43.09543300" lon="0.26968300"><ele>477</ele><time>2007-09-28T11:59:49Z</time></trkpt>
<trkpt lat="43.09543300" lon="0.26920000"><ele>477</ele><time>2007-09-28T11:59:56Z</time></trkpt>
<trkpt lat="43.09548300" lon="0.26805000"><ele>477</ele><time>2007-09-28T12:00:09Z</time></trkpt>
<trkpt lat="43.09545000" lon="0.26758300"><ele>477</ele><time>2007-09-28T12:00:15Z</time></trkpt>
<trkpt lat="43.09541700" lon="0.26718300"><ele>440</ele><time>2007-09-28T12:00:26Z</time></trkpt>
<trkpt lat="43.09538300" lon="0.26675000"><ele>419</ele><time>2007-09-28T12:00:36Z</time></trkpt>
<trkpt lat="43.09541700" lon="0.26625000"><ele>411</ele><time>2007-09-28T12:00:43Z</time></trkpt>
<trkpt lat="43.09571700" lon="0.26565000"><ele>398</ele><time>2007-09-28T12:00:55Z</time></trkpt>
<trkpt lat="43.09515000" lon="0.26490000"><ele>397</ele><time>2007-09-28T12:01:12Z</time></trkpt>
<trkpt lat="43.09448300" lon="0.26505000"><ele>389</ele><time>2007-09-28T12:01:26Z</time></trkpt>
<trkpt lat="43.09408300" lon="0.26548300"><ele>387</ele><time>2007-09-28T12:01:35Z</time></trkpt>
<trkpt lat="43.09398300" lon="0.26595000"><ele>384</ele><time>2007-09-28T12:01:42Z</time></trkpt>
<trkpt lat="43.09393300" lon="0.26621700"><ele>377</ele><time>2007-09-28T12:01:51Z</time></trkpt>
<trkpt lat="43.09378300" lon="0.26581700"><ele>371</ele><time>2007-09-28T12:02:05Z</time></trkpt>
<trkpt lat="43.09408300" lon="0.26486700"><ele>344</ele><time>2007-09-28T12:02:19Z</time></trkpt>
<trkpt lat="43.09443300" lon="0.26453300"><ele>348</ele><time>2007-09-28T12:02:30Z</time></trkpt>
<trkpt lat="43.09485000" lon="0.26416700"><ele>351</ele><time>2007-09-28T12:02:44Z</time></trkpt>
<trkpt lat="43.09553300" lon="0.26395000"><ele>348</ele><time>2007-09-28T12:03:02Z</time></trkpt>
<trkpt lat="43.09621700" lon="0.26416700"><ele>345</ele><time>2007-09-28T12:03:21Z</time></trkpt>
<trkpt lat="43.09653300" lon="0.26435000"><ele>346</ele><time>2007-09-28T12:03:31Z</time></trkpt>
<trkpt lat="43.09718300" lon="0.26475000"><ele>349</ele><time>2007-09-28T12:03:58Z</time></trkpt>
<trkpt lat="43.09745000" lon="0.26486700"><ele>351</ele><time>2007-09-28T12:04:04Z</time></trkpt>
<trkpt lat="43.09765000" lon="0.26493300"><ele>351</ele><time>2007-09-28T12:04:14Z</time></trkpt>
<trkpt lat="43.09786700" lon="0.26535000"><ele>352</ele><time>2007-09-28T12:04:30Z</time></trkpt>
<trkpt lat="43.09810000" lon="0.26561700"><ele>352</ele><time>2007-09-28T12:04:46Z</time></trkpt>
<trkpt lat="43.09841700" lon="0.26601700"><ele>353</ele><time>2007-09-28T12:05:03Z</time></trkpt>
<trkpt lat="43.09840000" lon="0.26628300"><ele>352</ele><time>2007-09-28T12:05:13Z</time></trkpt>
<trkpt lat="43.09866700" lon="0.26638300"><ele>343</ele><time>2007-09-28T12:05:54Z</time></trkpt>
<trkpt lat="43.09890000" lon="0.26646700"><ele>338</ele><time>2007-09-28T12:06:16Z</time></trkpt>
<trkpt lat="43.09915000" lon="0.26718300"><ele>340</ele><time>2007-09-28T12:07:00Z</time></trkpt>
<trkpt lat="43.09928300" lon="0.26740000"><ele>346</ele><time>2007-09-28T12:07:12Z</time></trkpt>
<trkpt lat="43.09945000" lon="0.26773300"><ele>355</ele><time>2007-09-28T12:07:28Z</time></trkpt>
<trkpt lat="43.09970000" lon="0.26811700"><ele>361</ele><time>2007-09-28T12:07:45Z</time></trkpt>
<trkpt lat="43.09985000" lon="0.26856700"><ele>358</ele><time>2007-09-28T12:07:59Z</time></trkpt>
<trkpt lat="43.09981700" lon="0.26888300"><ele>353</ele><time>2007-09-28T12:08:11Z</time></trkpt>
<trkpt lat="43.09971700" lon="0.26908300"><ele>349</ele><time>2007-09-28T12:08:21Z</time></trkpt>
<trkpt lat="43.09980000" lon="0.26943300"><ele>352</ele><time>2007-09-28T12:08:34Z</time></trkpt>
<trkpt lat="43.10000000" lon="0.26988300"><ele>352</ele><time>2007-09-28T12:08:50Z</time></trkpt>
<trkpt lat="43.09995000" lon="0.27030000"><ele>342</ele><time>2007-09-28T12:09:03Z</time></trkpt>
<trkpt lat="43.09973300" lon="0.27073300"><ele>337</ele><time>2007-09-28T12:09:24Z</time></trkpt>
<trkpt lat="43.09990000" lon="0.27100000"><ele>340</ele><time>2007-09-28T12:09:50Z</time></trkpt>
<trkpt lat="43.10001700" lon="0.27153300"><ele>343</ele><time>2007-09-28T12:10:09Z</time></trkpt>
<trkpt lat="43.10016700" lon="0.27191700"><ele>348</ele><time>2007-09-28T12:10:24Z</time></trkpt>
<trkpt lat="43.10018300" lon="0.27236700"><ele>338</ele><time>2007-09-28T12:10:39Z</time></trkpt>
<trkpt lat="43.10030000" lon="0.27261700"><ele>341</ele><time>2007-09-28T12:10:50Z</time></trkpt>
<trkpt lat="43.10050000" lon="0.27301700"><ele>341</ele><time>2007-09-28T12:11:03Z</time></trkpt>
<trkpt lat="43.10080000" lon="0.27340000"><ele>334</ele><time>2007-09-28T12:11:12Z</time></trkpt>
<trkpt lat="43.10086700" lon="0.27363300"><ele>332</ele><time>2007-09-28T12:11:18Z</time></trkpt>
<trkpt lat="43.10063300" lon="0.27376700"><ele>327</ele><time>2007-09-28T12:11:27Z</time></trkpt>
<trkpt lat="43.10058300" lon="0.27398300"><ele>330</ele><time>2007-09-28T12:11:37Z</time></trkpt>
<trkpt lat="43.10111700" lon="0.27433300"><ele>340</ele><time>2007-09-28T12:12:04Z</time></trkpt>
<trkpt lat="43.10243300" lon="0.27351700"><ele>326</ele><time>2007-09-28T12:12:29Z</time></trkpt>
<trkpt lat="43.10235000" lon="0.27288300"><ele>331</ele><time>2007-09-28T12:12:39Z</time></trkpt>
<trkpt lat="43.10270000" lon="0.27200000"><ele>328</ele><time>2007-09-28T12:13:02Z</time></trkpt>
<trkpt lat="43.10298300" lon="0.27166700"><ele>329</ele><time>2007-09-28T12:13:13Z</time></trkpt>
<trkpt lat="43.10345000" lon="0.27125000"><ele>333</ele><time>2007-09-28T12:13:30Z</time></trkpt>
<trkpt lat="43.10338300" lon="0.27040000"><ele>337</ele><time>2007-09-28T12:13:53Z</time></trkpt>
<trkpt lat="43.10336700" lon="0.26998300"><ele>339</ele><time>2007-09-28T12:14:03Z</time></trkpt>
<trkpt lat="43.10330000" lon="0.26968300"><ele>340</ele><time>2007-09-28T12:14:14Z</time></trkpt>
<trkpt lat="43.10350000" lon="0.26943300"><ele>342</ele><time>2007-09-28T12:14:28Z</time></trkpt>
<trkpt lat="43.10331700" lon="0.26883300"><ele>351</ele><time>2007-09-28T12:15:04Z</time></trkpt>
<trkpt lat="43.10323300" lon="0.26848300"><ele>356</ele><time>2007-09-28T12:15:22Z</time></trkpt>
<trkpt lat="43.10306700" lon="0.26795000"><ele>368</ele><time>2007-09-28T12:15:50Z</time></trkpt>
<trkpt lat="43.10290000" lon="0.26735000"><ele>369</ele><time>2007-09-28T12:16:20Z</time></trkpt>
<trkpt lat="43.10276700" lon="0.26688300"><ele>371</ele><time>2007-09-28T12:16:42Z</time></trkpt>
<trkpt lat="43.10293300" lon="0.26658300"><ele>369</ele><time>2007-09-28T12:17:14Z</time></trkpt>
<trkpt lat="43.10315000" lon="0.26633300"><ele>369</ele><time>2007-09-28T12:17:26Z</time></trkpt>
<trkpt lat="43.10338300" lon="0.26611700"><ele>355</ele><time>2007-09-28T12:17:40Z</time></trkpt>
<trkpt lat="43.10350000" lon="0.26583300"><ele>355</ele><time>2007-09-28T12:17:47Z</time></trkpt>
<trkpt lat="43.10380000" lon="0.26425000"><ele>355</ele><time>2007-09-28T12:18:08Z</time></trkpt>
<trkpt lat="43.10406700" lon="0.26381700"><ele>355</ele><time>2007-09-28T12:18:17Z</time></trkpt>
<trkpt lat="43.10395000" lon="0.26365000"><ele>352</ele><time>2007-09-28T12:18:26Z</time></trkpt>
<trkpt lat="43.10400000" lon="0.26338300"><ele>347</ele><time>2007-09-28T12:18:35Z</time></trkpt>
<trkpt lat="43.10416700" lon="0.26298300"><ele>350</ele><time>2007-09-28T12:18:47Z</time></trkpt>
<trkpt lat="43.10423300" lon="0.26273300"><ele>350</ele><time>2007-09-28T12:18:53Z</time></trkpt>
<trkpt lat="43.10431700" lon="0.26230000"><ele>350</ele><time>2007-09-28T12:19:04Z</time></trkpt>
<trkpt lat="43.10456700" lon="0.26203300"><ele>350</ele><time>2007-09-28T12:19:13Z</time></trkpt>
<trkpt lat="43.10468300" lon="0.26190000"><ele>341</ele><time>2007-09-28T12:19:23Z</time></trkpt>
<trkpt lat="43.10478300" lon="0.26158300"><ele>339</ele><time>2007-09-28T12:19:38Z</time></trkpt>
<trkpt lat="43.10506700" lon="0.26140000"><ele>329</ele><time>2007-09-28T12:19:47Z</time></trkpt>
<trkpt lat="43.10533300" lon="0.26116700"><ele>322</ele><time>2007-09-28T12:19:55Z</time></trkpt>
<trkpt lat="43.10551700" lon="0.26093300"><ele>315</ele><time>2007-09-28T12:20:03Z</time></trkpt>
<trkpt lat="43.10573300" lon="0.26048300"><ele>315</ele><time>2007-09-28T12:20:15Z</time></trkpt>
<trkpt lat="43.10613300" lon="0.26003300"><ele>320</ele><time>2007-09-28T12:20:32Z</time></trkpt>
<trkpt lat="43.10650000" lon="0.25978300"><ele>318</ele><time>2007-09-28T12:20:47Z</time></trkpt>
<trkpt lat="43.10678300" lon="0.25945000"><ele>316</ele><time>2007-09-28T12:20:59Z</time></trkpt>
<trkpt lat="43.10691700" lon="0.25928300"><ele>325</ele><time>2007-09-28T12:21:10Z</time></trkpt>
<trkpt lat="43.10703300" lon="0.25911700"><ele>332</ele><time>2007-09-28T12:21:21Z</time></trkpt>
<trkpt lat="43.10736700" lon="0.25896700"><ele>334</ele><time>2007-09-28T12:21:35Z</time></trkpt>
<trkpt lat="43.10790000" lon="0.25865000"><ele>334</ele><time>2007-09-28T12:21:52Z</time></trkpt>
<trkpt lat="43.10831700" lon="0.25838300"><ele>334</ele><time>2007-09-28T12:22:03Z</time></trkpt>
<trkpt lat="43.10871700" lon="0.25825000"><ele>334</ele><time>2007-09-28T12:22:16Z</time></trkpt>
<trkpt lat="43.10901700" lon="0.25815000"><ele>307</ele><time>2007-09-28T12:22:25Z</time></trkpt>
<trkpt lat="43.10915000" lon="0.25796700"><ele>309</ele><time>2007-09-28T12:22:32Z</time></trkpt>
<trkpt lat="43.10938300" lon="0.25801700"><ele>311</ele><time>2007-09-28T12:22:40Z</time></trkpt>
<trkpt lat="43.10951700" lon="0.25833300"><ele>314</ele><time>2007-09-28T12:22:50Z</time></trkpt>
<trkpt lat="43.10958300" lon="0.25885000"><ele>312</ele><time>2007-09-28T12:23:01Z</time></trkpt>
<trkpt lat="43.10970000" lon="0.25938300"><ele>309</ele><time>2007-09-28T12:23:12Z</time></trkpt>
<trkpt lat="43.10988300" lon="0.26205000"><ele>323</ele><time>2007-09-28T12:28:57Z</time></trkpt>
<trkpt lat="43.10990000" lon="0.26235000"><ele>325</ele><time>2007-09-28T12:29:11Z</time></trkpt>
<trkpt lat="43.10991700" lon="0.26271700"><ele>327</ele><time>2007-09-28T12:29:29Z</time></trkpt>
<trkpt lat="43.10993300" lon="0.26303300"><ele>328</ele><time>2007-09-28T12:29:48Z</time></trkpt>
<trkpt lat="43.10996700" lon="0.26333300"><ele>332</ele><time>2007-09-28T12:30:52Z</time></trkpt>
<trkpt lat="43.10881700" lon="0.26393300"><ele>334</ele><time>2007-09-28T12:31:32Z</time></trkpt>
<trkpt lat="43.10741700" lon="0.26410000"><ele>332</ele><time>2007-09-28T12:31:59Z</time></trkpt>
<trkpt lat="43.10646700" lon="0.26466700"><ele>325</ele><time>2007-09-28T12:32:14Z</time></trkpt>
<trkpt lat="43.10551700" lon="0.26826700"><ele>323</ele><time>2007-09-28T12:33:03Z</time></trkpt>
<trkpt lat="43.10586700" lon="0.26843300"><ele>321</ele><time>2007-09-28T12:33:13Z</time></trkpt>
<trkpt lat="43.10621700" lon="0.26875000"><ele>320</ele><time>2007-09-28T12:33:22Z</time></trkpt>
<trkpt lat="43.10721700" lon="0.27186700"><ele>323</ele><time>2007-09-28T12:34:19Z</time></trkpt>
<trkpt lat="43.10710000" lon="0.27378300"><ele>326</ele><time>2007-09-28T12:34:52Z</time></trkpt>
<trkpt lat="43.10700000" lon="0.27411700"><ele>326</ele><time>2007-09-28T12:35:09Z</time></trkpt>
<trkpt lat="43.10800000" lon="0.27491700"><ele>325</ele><time>2007-09-28T12:35:42Z</time></trkpt>
<trkpt lat="43.10823300" lon="0.27446700"><ele>326</ele><time>2007-09-28T12:35:58Z</time></trkpt>
<trkpt lat="43.10835000" lon="0.27420000"><ele>316</ele><time>2007-09-28T12:39:18Z</time></trkpt>
<trkpt lat="43.10848300" lon="0.27355000"><ele>313</ele><time>2007-09-28T12:39:35Z</time></trkpt>
<trkpt lat="43.10843300" lon="0.27391700"><ele>315</ele><time>2007-09-28T12:39:59Z</time></trkpt>
<trkpt lat="43.10846700" lon="0.27436700"><ele>324</ele><time>2007-09-28T12:40:30Z</time></trkpt>
<trkpt lat="43.10853300" lon="0.27466700"><ele>329</ele><time>2007-09-28T12:40:55Z</time></trkpt>
<trkpt lat="43.10850000" lon="0.27523300"><ele>339</ele><time>2007-09-28T12:41:35Z</time></trkpt>
<trkpt lat="43.10845000" lon="0.27551700"><ele>350</ele><time>2007-09-28T12:41:58Z</time></trkpt>
<trkpt lat="43.10838300" lon="0.27580000"><ele>356</ele><time>2007-09-28T12:42:24Z</time></trkpt>
<trkpt lat="43.10835000" lon="0.27613300"><ele>350</ele><time>2007-09-28T12:42:51Z</time></trkpt>
<trkpt lat="43.10833300" lon="0.27651700"><ele>362</ele><time>2007-09-28T12:43:20Z</time></trkpt>
<trkpt lat="43.10830000" lon="0.27685000"><ele>376</ele><time>2007-09-28T12:43:50Z</time></trkpt>
<trkpt lat="43.10826700" lon="0.27726700"><ele>377</ele><time>2007-09-28T12:44:24Z</time></trkpt>
<trkpt lat="43.10810000" lon="0.27805000"><ele>380</ele><time>2007-09-28T12:45:25Z</time></trkpt>
<trkpt lat="43.10803300" lon="0.27825000"><ele>384</ele><time>2007-09-28T12:45:41Z</time></trkpt>
<trkpt lat="43.10800000" lon="0.27878300"><ele>392</ele><time>2007-09-28T12:46:30Z</time></trkpt>
<trkpt lat="43.10793300" lon="0.27900000"><ele>400</ele><time>2007-09-28T12:47:35Z</time></trkpt>
<trkpt lat="43.10790000" lon="0.27933300"><ele>399</ele><time>2007-09-28T12:47:59Z</time></trkpt>
<trkpt lat="43.10771700" lon="0.27975000"><ele>399</ele><time>2007-09-28T12:48:34Z</time></trkpt>
<trkpt lat="43.10758300" lon="0.28000000"><ele>392</ele><time>2007-09-28T12:48:52Z</time></trkpt>
<trkpt lat="43.10748300" lon="0.28018300"><ele>393</ele><time>2007-09-28T12:49:07Z</time></trkpt>
<trkpt lat="43.10733300" lon="0.28076700"><ele>391</ele><time>2007-09-28T12:49:31Z</time></trkpt>
<trkpt lat="43.10695000" lon="0.28208300"><ele>416</ele><time>2007-09-28T12:49:50Z</time></trkpt>
<trkpt lat="43.10718300" lon="0.28210000"><ele>429</ele><time>2007-09-28T12:49:59Z</time></trkpt>
<trkpt lat="43.10730000" lon="0.28235000"><ele>421</ele><time>2007-09-28T12:50:12Z</time></trkpt>
<trkpt lat="43.10736700" lon="0.28260000"><ele>420</ele><time>2007-09-28T12:50:30Z</time></trkpt>
<trkpt lat="43.10736700" lon="0.28296700"><ele>430</ele><time>2007-09-28T12:50:56Z</time></trkpt>
<trkpt lat="43.10740000" lon="0.28326700"><ele>433</ele><time>2007-09-28T12:51:11Z</time></trkpt>
<trkpt lat="43.10726700" lon="0.28375000"><ele>427</ele><time>2007-09-28T12:51:32Z</time></trkpt>
<trkpt lat="43.10723300" lon="0.28436700"><ele>427</ele><time>2007-09-28T12:51:53Z</time></trkpt>
<trkpt lat="43.10706700" lon="0.28461700"><ele>427</ele><time>2007-09-28T12:52:00Z</time></trkpt>
<trkpt lat="43.10696700" lon="0.28496700"><ele>428</ele><time>2007-09-28T12:52:11Z</time></trkpt>
<trkpt lat="43.10693300" lon="0.28545000"><ele>430</ele><time>2007-09-28T12:52:32Z</time></trkpt>
<trkpt lat="43.10688300" lon="0.28576700"><ele>432</ele><time>2007-09-28T12:52:53Z</time></trkpt>
<trkpt lat="43.10665000" lon="0.28618300"><ele>433</ele><time>2007-09-28T12:53:36Z</time></trkpt>
<trkpt lat="43.10651700" lon="0.28630000"><ele>433</ele><time>2007-09-28T12:53:51Z</time></trkpt>
<trkpt lat="43.10623300" lon="0.28641700"><ele>436</ele><time>2007-09-28T12:54:16Z</time></trkpt>
<trkpt lat="43.10610000" lon="0.28665000"><ele>436</ele><time>2007-09-28T12:54:37Z</time></trkpt>
<trkpt lat="43.10598300" lon="0.28680000"><ele>438</ele><time>2007-09-28T12:54:50Z</time></trkpt>
<trkpt lat="43.10580000" lon="0.28713300"><ele>449</ele><time>2007-09-28T12:55:23Z</time></trkpt>
<trkpt lat="43.10571700" lon="0.28733300"><ele>452</ele><time>2007-09-28T12:56:10Z</time></trkpt>
<trkpt lat="43.10558300" lon="0.28770000"><ele>450</ele><time>2007-09-28T12:56:42Z</time></trkpt>
<trkpt lat="43.10538300" lon="0.28800000"><ele>453</ele><time>2007-09-28T12:57:12Z</time></trkpt>
<trkpt lat="43.10518300" lon="0.28833300"><ele>457</ele><time>2007-09-28T12:57:45Z</time></trkpt>
<trkpt lat="43.10500000" lon="0.28868300"><ele>456</ele><time>2007-09-28T12:58:13Z</time></trkpt>
<trkpt lat="43.10480000" lon="0.28905000"><ele>462</ele><time>2007-09-28T12:58:42Z</time></trkpt>
<trkpt lat="43.10471700" lon="0.28923300"><ele>469</ele><time>2007-09-28T12:58:57Z</time></trkpt>
<trkpt lat="43.10433300" lon="0.28988300"><ele>471</ele><time>2007-09-28T12:59:55Z</time></trkpt>
<trkpt lat="43.10413300" lon="0.29001700"><ele>474</ele><time>2007-09-28T13:00:14Z</time></trkpt>
<trkpt lat="43.10386700" lon="0.29005000"><ele>477</ele><time>2007-09-28T13:00:37Z</time></trkpt>
<trkpt lat="43.10358300" lon="0.29031700"><ele>479</ele><time>2007-09-28T13:01:00Z</time></trkpt>
<trkpt lat="43.10313300" lon="0.29081700"><ele>470</ele><time>2007-09-28T13:01:31Z</time></trkpt>
<trkpt lat="43.10280000" lon="0.29131700"><ele>471</ele><time>2007-09-28T13:01:41Z</time></trkpt>
<trkpt lat="43.10265000" lon="0.29163300"><ele>477</ele><time>2007-09-28T13:01:51Z</time></trkpt>
<trkpt lat="43.10251700" lon="0.29188300"><ele>476</ele><time>2007-09-28T13:02:03Z</time></trkpt>
<trkpt lat="43.10153300" lon="0.29321700"><ele>476</ele><time>2007-09-28T13:03:08Z</time></trkpt>
<trkpt lat="43.10128300" lon="0.29340000"><ele>477</ele><time>2007-09-28T13:03:21Z</time></trkpt>
<trkpt lat="43.10060000" lon="0.29375000"><ele>482</ele><time>2007-09-28T13:03:49Z</time></trkpt>
<trkpt lat="43.09870000" lon="0.29560000"><ele>492</ele><time>2007-09-28T13:04:50Z</time></trkpt>
<trkpt lat="43.09803300" lon="0.29685000"><ele>498</ele><time>2007-09-28T13:05:32Z</time></trkpt>
<trkpt lat="43.09788300" lon="0.29708300"><ele>500</ele><time>2007-09-28T13:05:42Z</time></trkpt>
<trkpt lat="43.09776700" lon="0.29773300"><ele>499</ele><time>2007-09-28T13:05:59Z</time></trkpt>
<trkpt lat="43.09760000" lon="0.29823300"><ele>501</ele><time>2007-09-28T13:06:11Z</time></trkpt>
<trkpt lat="43.09746700" lon="0.29861700"><ele>504</ele><time>2007-09-28T13:06:25Z</time></trkpt>
<trkpt lat="43.09695000" lon="0.30025000"><ele>511</ele><time>2007-09-28T13:07:21Z</time></trkpt>
<trkpt lat="43.09695000" lon="0.30135000"><ele>521</ele><time>2007-09-28T13:08:07Z</time></trkpt>
<trkpt lat="43.09690000" lon="0.30283300"><ele>531</ele><time>2007-09-28T13:08:59Z</time></trkpt>
<trkpt lat="43.09695000" lon="0.30341700"><ele>531</ele><time>2007-09-28T13:09:15Z</time></trkpt>
<trkpt lat="43.09675000" lon="0.30481700"><ele>535</ele><time>2007-09-28T13:09:58Z</time></trkpt>
<trkpt lat="43.09675000" lon="0.30573300"><ele>549</ele><time>2007-09-28T13:10:40Z</time></trkpt>
<trkpt lat="43.09676700" lon="0.30610000"><ele>552</ele><time>2007-09-28T13:10:58Z</time></trkpt>
<trkpt lat="43.09670000" lon="0.30628300"><ele>553</ele><time>2007-09-28T13:11:10Z</time></trkpt>
<trkpt lat="43.09641700" lon="0.30601700"><ele>553</ele><time>2007-09-28T13:11:34Z</time></trkpt>
<trkpt lat="43.09623300" lon="0.30598300"><ele>555</ele><time>2007-09-28T13:11:46Z</time></trkpt>
<trkpt lat="43.09618300" lon="0.30660000"><ele>559</ele><time>2007-09-28T13:12:17Z</time></trkpt>
<trkpt lat="43.09616700" lon="0.30690000"><ele>563</ele><time>2007-09-28T13:12:31Z</time></trkpt>
<trkpt lat="43.09555000" lon="0.31376700"><ele>603</ele><time>2007-09-28T13:16:44Z</time></trkpt>
<trkpt lat="43.09510000" lon="0.31503300"><ele>613</ele><time>2007-09-28T13:17:36Z</time></trkpt>
<trkpt lat="43.09480000" lon="0.31660000"><ele>618</ele><time>2007-09-28T13:18:23Z</time></trkpt>
<trkpt lat="43.09408300" lon="0.32188300"><ele>625</ele><time>2007-09-28T13:20:05Z</time></trkpt>
<trkpt lat="43.09368300" lon="0.32551700"><ele>633</ele><time>2007-09-28T13:21:25Z</time></trkpt>
<trkpt lat="43.09376700" lon="0.32590000"><ele>633</ele><time>2007-09-28T13:21:33Z</time></trkpt>
<trkpt lat="43.09398300" lon="0.32618300"><ele>631</ele><time>2007-09-28T13:21:40Z</time></trkpt>
<trkpt lat="43.09363300" lon="0.32673300"><ele>630</ele><time>2007-09-28T13:21:55Z</time></trkpt>
<trkpt lat="43.09300000" lon="0.32801700"><ele>631</ele><time>2007-09-28T13:22:27Z</time></trkpt>
<trkpt lat="43.09248300" lon="0.32916700"><ele>630</ele><time>2007-09-28T13:22:57Z</time></trkpt>
<trkpt lat="43.09236700" lon="0.32943300"><ele>629</ele><time>2007-09-28T13:23:05Z</time></trkpt>
<trkpt lat="43.09225000" lon="0.32963300"><ele>637</ele><time>2007-09-28T13:28:07Z</time></trkpt>
<trkpt lat="43.09193300" lon="0.33028300"><ele>636</ele><time>2007-09-28T13:28:29Z</time></trkpt>
<trkpt lat="43.09126700" lon="0.33153300"><ele>638</ele><time>2007-09-28T13:29:13Z</time></trkpt>
<trkpt lat="43.09061700" lon="0.33283300"><ele>638</ele><time>2007-09-28T13:29:59Z</time></trkpt>
<trkpt lat="43.08978300" lon="0.33441700"><ele>640</ele><time>2007-09-28T13:30:56Z</time></trkpt>
<trkpt lat="43.08871700" lon="0.33453300"><ele>643</ele><time>2007-09-28T13:31:34Z</time></trkpt>
<trkpt lat="43.08810000" lon="0.33435000"><ele>642</ele><time>2007-09-28T13:31:51Z</time></trkpt>
<trkpt lat="43.08771700" lon="0.33425000"><ele>641</ele><time>2007-09-28T13:32:02Z</time></trkpt>
<trkpt lat="43.08760000" lon="0.33475000"><ele>643</ele><time>2007-09-28T13:32:16Z</time></trkpt>
<trkpt lat="43.08711700" lon="0.33490000"><ele>642</ele><time>2007-09-28T13:32:30Z</time></trkpt>
<trkpt lat="43.08690000" lon="0.33563300"><ele>643</ele><time>2007-09-28T13:32:48Z</time></trkpt>
<trkpt lat="43.08666700" lon="0.33695000"><ele>644</ele><time>2007-09-28T13:33:18Z</time></trkpt>
<trkpt lat="43.08651700" lon="0.33768300"><ele>649</ele><time>2007-09-28T13:33:38Z</time></trkpt>
<trkpt lat="43.08618300" lon="0.33928300"><ele>648</ele><time>2007-09-28T13:34:16Z</time></trkpt>
<trkpt lat="43.08601700" lon="0.33983300"><ele>648</ele><time>2007-09-28T13:34:27Z</time></trkpt>
<trkpt lat="43.08568300" lon="0.34105000"><ele>649</ele><time>2007-09-28T13:34:51Z</time></trkpt>
<trkpt lat="43.08526700" lon="0.34198300"><ele>650</ele><time>2007-09-28T13:35:13Z</time></trkpt>
<trkpt lat="43.08466700" lon="0.34298300"><ele>654</ele><time>2007-09-28T13:35:42Z</time></trkpt>
<trkpt lat="43.08443300" lon="0.34326700"><ele>654</ele><time>2007-09-28T13:35:52Z</time></trkpt>
<trkpt lat="43.08425000" lon="0.34375000"><ele>657</ele><time>2007-09-28T13:36:04Z</time></trkpt>
<trkpt lat="43.08405000" lon="0.34451700"><ele>656</ele><time>2007-09-28T13:36:22Z</time></trkpt>
<trkpt lat="43.08378300" lon="0.34523300"><ele>657</ele><time>2007-09-28T13:36:38Z</time></trkpt>
<trkpt lat="43.08361700" lon="0.34580000"><ele>657</ele><time>2007-09-28T13:36:51Z</time></trkpt>
<trkpt lat="43.08341700" lon="0.34615000"><ele>655</ele><time>2007-09-28T13:37:00Z</time></trkpt>
<trkpt lat="43.08296700" lon="0.34726700"><ele>651</ele><time>2007-09-28T13:37:30Z</time></trkpt>
<trkpt lat="43.08261700" lon="0.34735000"><ele>649</ele><time>2007-09-28T13:37:39Z</time></trkpt>
<trkpt lat="43.08226700" lon="0.34713300"><ele>649</ele><time>2007-09-28T13:37:45Z</time></trkpt>
<trkpt lat="43.08190000" lon="0.34675000"><ele>645</ele><time>2007-09-28T13:38:01Z</time></trkpt>
<trkpt lat="43.08146700" lon="0.34611700"><ele>645</ele><time>2007-09-28T13:38:12Z</time></trkpt>
<trkpt lat="43.08121700" lon="0.34596700"><ele>645</ele><time>2007-09-28T13:38:16Z</time></trkpt>
<trkpt lat="43.08033300" lon="0.34536700"><ele>636</ele><time>2007-09-28T13:38:39Z</time></trkpt>
<trkpt lat="43.08018300" lon="0.34530000"><ele>641</ele><time>2007-09-28T13:38:46Z</time></trkpt>
<trkpt lat="43.08020000" lon="0.34555000"><ele>644</ele><time>2007-09-28T13:39:01Z</time></trkpt>
<trkpt lat="43.08023300" lon="0.34585000"><ele>650</ele><time>2007-09-28T13:39:24Z</time></trkpt>
<trkpt lat="43.08021700" lon="0.34616700"><ele>651</ele><time>2007-09-28T13:39:50Z</time></trkpt>
<trkpt lat="43.08021700" lon="0.34636700"><ele>650</ele><time>2007-09-28T13:40:01Z</time></trkpt>
<trkpt lat="43.08008300" lon="0.34655000"><ele>649</ele><time>2007-09-28T13:40:13Z</time></trkpt>
<trkpt lat="43.07988300" lon="0.34678300"><ele>646</ele><time>2007-09-28T13:40:29Z</time></trkpt>
<trkpt lat="43.07976700" lon="0.34703300"><ele>647</ele><time>2007-09-28T13:40:45Z</time></trkpt>
<trkpt lat="43.07968300" lon="0.34721700"><ele>646</ele><time>2007-09-28T13:40:55Z</time></trkpt>
<trkpt lat="43.07958300" lon="0.34741700"><ele>645</ele><time>2007-09-28T13:41:06Z</time></trkpt>
<trkpt lat="43.07940000" lon="0.34771700"><ele>650</ele><time>2007-09-28T13:41:23Z</time></trkpt>
<trkpt lat="43.07935000" lon="0.34721700"><ele>642</ele><time>2007-09-28T13:41:40Z</time></trkpt>
<trkpt lat="43.07888300" lon="0.34755000"><ele>645</ele><time>2007-09-28T13:42:05Z</time></trkpt>
<trkpt lat="43.07875000" lon="0.34785000"><ele>651</ele><time>2007-09-28T13:42:17Z</time></trkpt>
<trkpt lat="43.07805000" lon="0.34930000"><ele>664</ele><time>2007-09-28T13:43:09Z</time></trkpt>
<trkpt lat="43.07786700" lon="0.34941700"><ele>665</ele><time>2007-09-28T13:43:18Z</time></trkpt>
<trkpt lat="43.07730000" lon="0.34855000"><ele>663</ele><time>2007-09-28T13:43:43Z</time></trkpt>
<trkpt lat="43.07328300" lon="0.35031700"><ele>668</ele><time>2007-09-28T13:45:44Z</time></trkpt>
<trkpt lat="43.07345000" lon="0.35098300"><ele>668</ele><time>2007-09-28T13:46:01Z</time></trkpt>
<trkpt lat="43.07176700" lon="0.35218300"><ele>655</ele><time>2007-09-28T13:46:38Z</time></trkpt>
<trkpt lat="43.07060000" lon="0.35140000"><ele>647</ele><time>2007-09-28T13:46:56Z</time></trkpt>
<trkpt lat="43.07018300" lon="0.35075000"><ele>643</ele><time>2007-09-28T13:47:21Z</time></trkpt>
<trkpt lat="43.06981700" lon="0.34943300"><ele>634</ele><time>2007-09-28T13:50:36Z</time></trkpt>
<trkpt lat="43.06931700" lon="0.34950000"><ele>633</ele><time>2007-09-28T13:50:51Z</time></trkpt>
<trkpt lat="43.06823300" lon="0.34980000"><ele>633</ele><time>2007-09-28T13:51:31Z</time></trkpt>
<trkpt lat="43.06768300" lon="0.34985000"><ele>636</ele><time>2007-09-28T13:51:48Z</time></trkpt>
<trkpt lat="43.06591700" lon="0.35013300"><ele>631</ele><time>2007-09-28T13:52:53Z</time></trkpt>
<trkpt lat="43.06471700" lon="0.35051700"><ele>621</ele><time>2007-09-28T13:53:37Z</time></trkpt>
<trkpt lat="43.06425000" lon="0.35068300"><ele>618</ele><time>2007-09-28T13:53:49Z</time></trkpt>
<trkpt lat="43.06393300" lon="0.35088300"><ele>615</ele><time>2007-09-28T13:53:59Z</time></trkpt>
<trkpt lat="43.06388300" lon="0.35105000"><ele>617</ele><time>2007-09-28T13:54:09Z</time></trkpt>
<trkpt lat="43.06368300" lon="0.35118300"><ele>617</ele><time>2007-09-28T13:54:32Z</time></trkpt>
<trkpt lat="43.06358300" lon="0.35131700"><ele>614</ele><time>2007-09-28T13:55:05Z</time></trkpt>
<trkpt lat="43.06333300" lon="0.35290000"><ele>622</ele><time>2007-09-28T13:56:19Z</time></trkpt>
<trkpt lat="43.06328300" lon="0.35325000"><ele>623</ele><time>2007-09-28T13:56:31Z</time></trkpt>
<trkpt lat="43.06320000" lon="0.35360000"><ele>621</ele><time>2007-09-28T13:56:47Z</time></trkpt>
<trkpt lat="43.06311700" lon="0.35393300"><ele>619</ele><time>2007-09-28T13:57:01Z</time></trkpt>
<trkpt lat="43.06315000" lon="0.35438300"><ele>618</ele><time>2007-09-28T13:57:12Z</time></trkpt>
<trkpt lat="43.06316700" lon="0.35523300"><ele>618</ele><time>2007-09-28T13:57:32Z</time></trkpt>
<trkpt lat="43.06288300" lon="0.35593300"><ele>628</ele><time>2007-09-28T13:57:56Z</time></trkpt>
<trkpt lat="43.06238300" lon="0.35655000"><ele>632</ele><time>2007-09-28T13:58:16Z</time></trkpt>
<trkpt lat="43.06158300" lon="0.35708300"><ele>633</ele><time>2007-09-28T13:58:42Z</time></trkpt>
<trkpt lat="43.06123300" lon="0.35711700"><ele>634</ele><time>2007-09-28T13:58:52Z</time></trkpt>
<trkpt lat="43.05966700" lon="0.35760000"><ele>635</ele><time>2007-09-28T13:59:36Z</time></trkpt>
<trkpt lat="43.05913300" lon="0.35770000"><ele>635</ele><time>2007-09-28T13:59:49Z</time></trkpt>
<trkpt lat="43.05795000" lon="0.35778300"><ele>637</ele><time>2007-09-28T14:00:20Z</time></trkpt>
<trkpt lat="43.05736700" lon="0.35768300"><ele>641</ele><time>2007-09-28T14:00:39Z</time></trkpt>
<trkpt lat="43.05640000" lon="0.35720000"><ele>642</ele><time>2007-09-28T14:01:13Z</time></trkpt>
<trkpt lat="43.05613300" lon="0.35698300"><ele>642</ele><time>2007-09-28T14:01:21Z</time></trkpt>
<trkpt lat="43.05578300" lon="0.35666700"><ele>639</ele><time>2007-09-28T14:01:47Z</time></trkpt>
<trkpt lat="43.05553300" lon="0.35646700"><ele>638</ele><time>2007-09-28T14:03:36Z</time></trkpt>
<trkpt lat="43.05516700" lon="0.35605000"><ele>633</ele><time>2007-09-28T14:17:58Z</time></trkpt>
<trkpt lat="43.05416700" lon="0.35498300"><ele>628</ele><time>2007-09-28T14:18:17Z</time></trkpt>
<trkpt lat="43.05325000" lon="0.35328300"><ele>625</ele><time>2007-09-28T14:18:56Z</time></trkpt>
<trkpt lat="43.05340000" lon="0.35288300"><ele>628</ele><time>2007-09-28T14:19:10Z</time></trkpt>
<trkpt lat="43.05346700" lon="0.35251700"><ele>630</ele><time>2007-09-28T14:19:18Z</time></trkpt>
<trkpt lat="43.05335000" lon="0.35213300"><ele>628</ele><time>2007-09-28T14:19:29Z</time></trkpt>
<trkpt lat="43.05281700" lon="0.35173300"><ele>629</ele><time>2007-09-28T14:19:49Z</time></trkpt>
<trkpt lat="43.05215000" lon="0.35166700"><ele>632</ele><time>2007-09-28T14:20:08Z</time></trkpt>
<trkpt lat="43.05165000" lon="0.35205000"><ele>631</ele><time>2007-09-28T14:20:25Z</time></trkpt>
<trkpt lat="43.05140000" lon="0.35206700"><ele>632</ele><time>2007-09-28T14:20:32Z</time></trkpt>
<trkpt lat="43.05146700" lon="0.35166700"><ele>630</ele><time>2007-09-28T14:20:43Z</time></trkpt>
<trkpt lat="43.05151700" lon="0.35125000"><ele>630</ele><time>2007-09-28T14:20:56Z</time></trkpt>
<trkpt lat="43.05161700" lon="0.35085000"><ele>631</ele><time>2007-09-28T14:21:10Z</time></trkpt>
<trkpt lat="43.05203300" lon="0.35018300"><ele>635</ele><time>2007-09-28T14:21:32Z</time></trkpt>
<trkpt lat="43.05201700" lon="0.34966700"><ele>636</ele><time>2007-09-28T14:21:46Z</time></trkpt>
<trkpt lat="43.05176700" lon="0.34913300"><ele>636</ele><time>2007-09-28T14:22:00Z</time></trkpt>
<trkpt lat="43.05120000" lon="0.34845000"><ele>636</ele><time>2007-09-28T14:22:22Z</time></trkpt>
<trkpt lat="43.05090000" lon="0.34823300"><ele>637</ele><time>2007-09-28T14:22:32Z</time></trkpt>
<trkpt lat="43.05048300" lon="0.34813300"><ele>638</ele><time>2007-09-28T14:22:46Z</time></trkpt>
<trkpt lat="43.04961700" lon="0.34766700"><ele>639</ele><time>2007-09-28T14:23:06Z</time></trkpt>
<trkpt lat="43.04950000" lon="0.34721700"><ele>637</ele><time>2007-09-28T14:23:13Z</time></trkpt>
<trkpt lat="43.04921700" lon="0.34675000"><ele>633</ele><time>2007-09-28T14:23:20Z</time></trkpt>
<trkpt lat="43.04875000" lon="0.34606700"><ele>630</ele><time>2007-09-28T14:23:30Z</time></trkpt>
<trkpt lat="43.04828300" lon="0.34665000"><ele>636</ele><time>2007-09-28T14:24:00Z</time></trkpt>
<trkpt lat="43.04746700" lon="0.34821700"><ele>641</ele><time>2007-09-28T14:24:56Z</time></trkpt>
<trkpt lat="43.04718300" lon="0.34923300"><ele>649</ele><time>2007-09-28T14:25:37Z</time></trkpt>
<trkpt lat="43.04715000" lon="0.34946700"><ele>651</ele><time>2007-09-28T14:25:47Z</time></trkpt>
<trkpt lat="43.04680000" lon="0.34883300"><ele>653</ele><time>2007-09-28T14:26:36Z</time></trkpt>
<trkpt lat="43.04671700" lon="0.34840000"><ele>653</ele><time>2007-09-28T14:27:06Z</time></trkpt>
<trkpt lat="43.04670000" lon="0.34808300"><ele>657</ele><time>2007-09-28T14:27:27Z</time></trkpt>
<trkpt lat="43.04656700" lon="0.34733300"><ele>672</ele><time>2007-09-28T14:28:36Z</time></trkpt>
<trkpt lat="43.04643300" lon="0.34661700"><ele>681</ele><time>2007-09-28T14:29:43Z</time></trkpt>
<trkpt lat="43.04636700" lon="0.34635000"><ele>684</ele><time>2007-09-28T14:30:00Z</time></trkpt>
<trkpt lat="43.04585000" lon="0.34531700"><ele>688</ele><time>2007-09-28T14:30:48Z</time></trkpt>
<trkpt lat="43.04575000" lon="0.34496700"><ele>685</ele><time>2007-09-28T14:30:59Z</time></trkpt>
<trkpt lat="43.04565000" lon="0.34415000"><ele>681</ele><time>2007-09-28T14:31:15Z</time></trkpt>
<trkpt lat="43.04553300" lon="0.34341700"><ele>683</ele><time>2007-09-28T14:31:30Z</time></trkpt>
<trkpt lat="43.04528300" lon="0.34240000"><ele>682</ele><time>2007-09-28T14:31:49Z</time></trkpt>
<trkpt lat="43.04460000" lon="0.34136700"><ele>676</ele><time>2007-09-28T14:32:06Z</time></trkpt>
<trkpt lat="43.04306700" lon="0.33991700"><ele>662</ele><time>2007-09-28T14:32:29Z</time></trkpt>
<trkpt lat="43.04246700" lon="0.33893300"><ele>658</ele><time>2007-09-28T14:32:40Z</time></trkpt>
<trkpt lat="43.04163300" lon="0.33703300"><ele>658</ele><time>2007-09-28T14:33:06Z</time></trkpt>
<trkpt lat="43.04156700" lon="0.33583300"><ele>661</ele><time>2007-09-28T14:33:27Z</time></trkpt>
<trkpt lat="43.04156700" lon="0.33555000"><ele>662</ele><time>2007-09-28T14:33:34Z</time></trkpt>
<trkpt lat="43.04180000" lon="0.33531700"><ele>667</ele><time>2007-09-28T14:33:52Z</time></trkpt>
<trkpt lat="43.04210000" lon="0.33406700"><ele>683</ele><time>2007-09-28T14:35:04Z</time></trkpt>
<trkpt lat="43.04218300" lon="0.33350000"><ele>687</ele><time>2007-09-28T14:35:40Z</time></trkpt>
<trkpt lat="43.04238300" lon="0.33285000"><ele>690</ele><time>2007-09-28T14:36:32Z</time></trkpt>
<trkpt lat="43.04240000" lon="0.33253300"><ele>693</ele><time>2007-09-28T14:36:59Z</time></trkpt>
<trkpt lat="43.04240000" lon="0.33220000"><ele>698</ele><time>2007-09-28T14:37:31Z</time></trkpt>
<trkpt lat="43.04246700" lon="0.33201700"><ele>702</ele><time>2007-09-28T14:37:47Z</time></trkpt>
<trkpt lat="43.04255000" lon="0.33183300"><ele>704</ele><time>2007-09-28T14:37:59Z</time></trkpt>
<trkpt lat="43.04261700" lon="0.33105000"><ele>711</ele><time>2007-09-28T14:38:47Z</time></trkpt>
<trkpt lat="43.04263300" lon="0.33085000"><ele>711</ele><time>2007-09-28T14:39:04Z</time></trkpt>
<trkpt lat="43.04270000" lon="0.33056700"><ele>713</ele><time>2007-09-28T14:39:24Z</time></trkpt>
<trkpt lat="43.04276700" lon="0.33020000"><ele>714</ele><time>2007-09-28T14:39:42Z</time></trkpt>
<trkpt lat="43.04296700" lon="0.32973300"><ele>717</ele><time>2007-09-28T14:40:13Z</time></trkpt>
<trkpt lat="43.04311700" lon="0.32955000"><ele>716</ele><time>2007-09-28T14:40:30Z</time></trkpt>
<trkpt lat="43.04320000" lon="0.32911700"><ele>717</ele><time>2007-09-28T14:40:46Z</time></trkpt>
<trkpt lat="43.04348300" lon="0.32850000"><ele>716</ele><time>2007-09-28T14:41:07Z</time></trkpt>
<trkpt lat="43.04371700" lon="0.32808300"><ele>717</ele><time>2007-09-28T14:41:55Z</time></trkpt>
<trkpt lat="43.04381700" lon="0.32781700"><ele>718</ele><time>2007-09-28T14:42:23Z</time></trkpt>
<trkpt lat="43.04425000" lon="0.32755000"><ele>722</ele><time>2007-09-28T14:42:48Z</time></trkpt>
<trkpt lat="43.04481700" lon="0.32756700"><ele>729</ele><time>2007-09-28T14:43:17Z</time></trkpt>
<trkpt lat="43.04485000" lon="0.32710000"><ele>731</ele><time>2007-09-28T14:43:56Z</time></trkpt>
<trkpt lat="43.04501700" lon="0.32673300"><ele>736</ele><time>2007-09-28T14:44:27Z</time></trkpt>
<trkpt lat="43.04505000" lon="0.32645000"><ele>737</ele><time>2007-09-28T14:44:50Z</time></trkpt>
<trkpt lat="43.04515000" lon="0.32623300"><ele>740</ele><time>2007-09-28T14:45:05Z</time></trkpt>
<trkpt lat="43.04526700" lon="0.32588300"><ele>740</ele><time>2007-09-28T14:45:12Z</time></trkpt>
<trkpt lat="43.04551700" lon="0.32570000"><ele>727</ele><time>2007-09-28T14:45:21Z</time></trkpt>
<trkpt lat="43.04556700" lon="0.32531700"><ele>724</ele><time>2007-09-28T14:45:29Z</time></trkpt>
<trkpt lat="43.04565000" lon="0.32495000"><ele>719</ele><time>2007-09-28T14:45:38Z</time></trkpt>
<trkpt lat="43.04566700" lon="0.32460000"><ele>718</ele><time>2007-09-28T14:45:46Z</time></trkpt>
<trkpt lat="43.04550000" lon="0.32436700"><ele>718</ele><time>2007-09-28T14:45:55Z</time></trkpt>
<trkpt lat="43.04548300" lon="0.32410000"><ele>711</ele><time>2007-09-28T14:46:02Z</time></trkpt>
<trkpt lat="43.04561700" lon="0.32356700"><ele>708</ele><time>2007-09-28T14:46:12Z</time></trkpt>
<trkpt lat="43.04578300" lon="0.32305000"><ele>701</ele><time>2007-09-28T14:46:25Z</time></trkpt>
<trkpt lat="43.04595000" lon="0.32281700"><ele>689</ele><time>2007-09-28T14:46:46Z</time></trkpt>
<trkpt lat="43.04608300" lon="0.32230000"><ele>689</ele><time>2007-09-28T14:46:55Z</time></trkpt>
<trkpt lat="43.04640000" lon="0.32090000"><ele>681</ele><time>2007-09-28T14:47:14Z</time></trkpt>
<trkpt lat="43.04663300" lon="0.32070000"><ele>672</ele><time>2007-09-28T14:47:32Z</time></trkpt>
<trkpt lat="43.04680000" lon="0.32053300"><ele>673</ele><time>2007-09-28T14:47:47Z</time></trkpt>
<trkpt lat="43.04685000" lon="0.31986700"><ele>668</ele><time>2007-09-28T14:48:01Z</time></trkpt>
<trkpt lat="43.04698300" lon="0.31926700"><ele>660</ele><time>2007-09-28T14:48:15Z</time></trkpt>
<trkpt lat="43.04710000" lon="0.31876700"><ele>656</ele><time>2007-09-28T14:48:27Z</time></trkpt>
<trkpt lat="43.04743300" lon="0.31680000"><ele>649</ele><time>2007-09-28T14:48:57Z</time></trkpt>
<trkpt lat="43.04781700" lon="0.31636700"><ele>649</ele><time>2007-09-28T14:49:11Z</time></trkpt>
<trkpt lat="43.04863300" lon="0.31516700"><ele>624</ele><time>2007-09-28T14:49:33Z</time></trkpt>
<trkpt lat="43.04885000" lon="0.31485000"><ele>622</ele><time>2007-09-28T14:49:39Z</time></trkpt>
<trkpt lat="43.04928300" lon="0.31461700"><ele>617</ele><time>2007-09-28T14:49:50Z</time></trkpt>
<trkpt lat="43.04948300" lon="0.31421700"><ele>611</ele><time>2007-09-28T14:49:56Z</time></trkpt>
<trkpt lat="43.04966700" lon="0.31350000"><ele>611</ele><time>2007-09-28T14:50:02Z</time></trkpt>
<trkpt lat="43.04951700" lon="0.31256700"><ele>611</ele><time>2007-09-28T14:50:10Z</time></trkpt>
<trkpt lat="43.04981700" lon="0.31206700"><ele>610</ele><time>2007-09-28T14:50:18Z</time></trkpt>
<trkpt lat="43.05011700" lon="0.31178300"><ele>602</ele><time>2007-09-28T14:50:29Z</time></trkpt>
<trkpt lat="43.05081700" lon="0.31130000"><ele>601</ele><time>2007-09-28T14:51:01Z</time></trkpt>
<trkpt lat="43.05093300" lon="0.31105000"><ele>601</ele><time>2007-09-28T14:51:13Z</time></trkpt>
<trkpt lat="43.05113300" lon="0.31075000"><ele>595</ele><time>2007-09-28T14:51:27Z</time></trkpt>
<trkpt lat="43.05103300" lon="0.31046700"><ele>610</ele><time>2007-09-28T14:51:38Z</time></trkpt>
<trkpt lat="43.05090000" lon="0.31021700"><ele>607</ele><time>2007-09-28T14:51:47Z</time></trkpt>
<trkpt lat="43.05051700" lon="0.30958300"><ele>601</ele><time>2007-09-28T14:51:57Z</time></trkpt>
<trkpt lat="43.05068300" lon="0.30906700"><ele>599</ele><time>2007-09-28T14:52:03Z</time></trkpt>
<trkpt lat="43.05120000" lon="0.30750000"><ele>607</ele><time>2007-09-28T14:52:20Z</time></trkpt>
<trkpt lat="43.05171700" lon="0.30673300"><ele>593</ele><time>2007-09-28T14:52:33Z</time></trkpt>
<trkpt lat="43.05196700" lon="0.30650000"><ele>594</ele><time>2007-09-28T14:52:41Z</time></trkpt>
<trkpt lat="43.05243300" lon="0.30651700"><ele>595</ele><time>2007-09-28T14:52:52Z</time></trkpt>
<trkpt lat="43.05290000" lon="0.30693300"><ele>593</ele><time>2007-09-28T14:53:05Z</time></trkpt>
<trkpt lat="43.05306700" lon="0.30733300"><ele>593</ele><time>2007-09-28T14:53:13Z</time></trkpt>
<trkpt lat="43.05316700" lon="0.30773300"><ele>593</ele><time>2007-09-28T14:53:21Z</time></trkpt>
<trkpt lat="43.05370000" lon="0.30811700"><ele>594</ele><time>2007-09-28T14:53:37Z</time></trkpt>
<trkpt lat="43.05366700" lon="0.30898300"><ele>594</ele><time>2007-09-28T14:53:55Z</time></trkpt>
<trkpt lat="43.05373300" lon="0.30931700"><ele>594</ele><time>2007-09-28T14:54:03Z</time></trkpt>
<trkpt lat="43.05416700" lon="0.30926700"><ele>591</ele><time>2007-09-28T14:54:13Z</time></trkpt>
<trkpt lat="43.05455000" lon="0.30946700"><ele>589</ele><time>2007-09-28T14:54:34Z</time></trkpt>
<trkpt lat="43.05465000" lon="0.30958300"><ele>591</ele><time>2007-09-28T14:55:10Z</time></trkpt>
<trkpt lat="43.05511700" lon="0.30925000"><ele>598</ele><time>2007-09-28T14:55:50Z</time></trkpt>
<trkpt lat="43.05540000" lon="0.30913300"><ele>603</ele><time>2007-09-28T14:56:16Z</time></trkpt>
<trkpt lat="43.05571700" lon="0.30911700"><ele>608</ele><time>2007-09-28T14:56:46Z</time></trkpt>
<trkpt lat="43.05583300" lon="0.30940000"><ele>610</ele><time>2007-09-28T14:57:08Z</time></trkpt>
<trkpt lat="43.05610000" lon="0.30925000"><ele>612</ele><time>2007-09-28T14:57:26Z</time></trkpt>
<trkpt lat="43.05695000" lon="0.30766700"><ele>620</ele><time>2007-09-28T14:58:36Z</time></trkpt>
<trkpt lat="43.05748300" lon="0.30690000"><ele>625</ele><time>2007-09-28T14:59:21Z</time></trkpt>
<trkpt lat="43.05766700" lon="0.30665000"><ele>627</ele><time>2007-09-28T14:59:37Z</time></trkpt>
<trkpt lat="43.05786700" lon="0.30661700"><ele>627</ele><time>2007-09-28T14:59:49Z</time></trkpt>
<trkpt lat="43.05818300" lon="0.30615000"><ele>624</ele><time>2007-09-28T15:00:13Z</time></trkpt>
<trkpt lat="43.05836700" lon="0.30570000"><ele>619</ele><time>2007-09-28T15:00:26Z</time></trkpt>
<trkpt lat="43.05873300" lon="0.30436700"><ele>617</ele><time>2007-09-28T15:00:55Z</time></trkpt>
<trkpt lat="43.05911700" lon="0.30386700"><ele>616</ele><time>2007-09-28T15:01:55Z</time></trkpt>
<trkpt lat="43.05965000" lon="0.30378300"><ele>610</ele><time>2007-09-28T15:02:05Z</time></trkpt>
<trkpt lat="43.05950000" lon="0.30323300"><ele>604</ele><time>2007-09-28T15:02:15Z</time></trkpt>
<trkpt lat="43.05920000" lon="0.30280000"><ele>601</ele><time>2007-09-28T15:02:22Z</time></trkpt>
<trkpt lat="43.05976700" lon="0.30251700"><ele>584</ele><time>2007-09-28T15:02:39Z</time></trkpt>
<trkpt lat="43.06048300" lon="0.30211700"><ele>574</ele><time>2007-09-28T15:02:53Z</time></trkpt>
<trkpt lat="43.06035000" lon="0.30143300"><ele>563</ele><time>2007-09-28T15:03:04Z</time></trkpt>
<trkpt lat="43.06046700" lon="0.30078300"><ele>552</ele><time>2007-09-28T15:03:13Z</time></trkpt>
<trkpt lat="43.06065000" lon="0.30025000"><ele>548</ele><time>2007-09-28T15:03:22Z</time></trkpt>
<trkpt lat="43.06080000" lon="0.30006700"><ele>543</ele><time>2007-09-28T15:03:29Z</time></trkpt>
<trkpt lat="43.06095000" lon="0.29965000"><ele>539</ele><time>2007-09-28T15:03:55Z</time></trkpt>
<trkpt lat="43.06118300" lon="0.29936700"><ele>541</ele><time>2007-09-28T15:04:06Z</time></trkpt>
<trkpt lat="43.06146700" lon="0.29923300"><ele>544</ele><time>2007-09-28T15:04:19Z</time></trkpt>
<trkpt lat="43.06190000" lon="0.29940000"><ele>549</ele><time>2007-09-28T15:04:39Z</time></trkpt>
<trkpt lat="43.06221700" lon="0.29973300"><ele>553</ele><time>2007-09-28T15:04:53Z</time></trkpt>
<trkpt lat="43.06258300" lon="0.30020000"><ele>556</ele><time>2007-09-28T15:05:15Z</time></trkpt>
<trkpt lat="43.06316700" lon="0.30183300"><ele>545</ele><time>2007-09-28T15:05:37Z</time></trkpt>
<trkpt lat="43.06346700" lon="0.30281700"><ele>541</ele><time>2007-09-28T15:05:49Z</time></trkpt>
<trkpt lat="43.06348300" lon="0.30318300"><ele>540</ele><time>2007-09-28T15:06:01Z</time></trkpt>
<trkpt lat="43.06373300" lon="0.30300000"><ele>541</ele><time>2007-09-28T15:06:17Z</time></trkpt>
<trkpt lat="43.06395000" lon="0.30253300"><ele>546</ele><time>2007-09-28T15:06:46Z</time></trkpt>
<trkpt lat="43.06405000" lon="0.30238300"><ele>548</ele><time>2007-09-28T15:06:58Z</time></trkpt>
<trkpt lat="43.06490000" lon="0.30186700"><ele>542</ele><time>2007-09-28T15:07:33Z</time></trkpt>
<trkpt lat="43.06520000" lon="0.30131700"><ele>540</ele><time>2007-09-28T15:07:42Z</time></trkpt>
<trkpt lat="43.06526700" lon="0.30051700"><ele>534</ele><time>2007-09-28T15:07:54Z</time></trkpt>
<trkpt lat="43.06520000" lon="0.29978300"><ele>527</ele><time>2007-09-28T15:08:02Z</time></trkpt>
<trkpt lat="43.06505000" lon="0.29891700"><ele>520</ele><time>2007-09-28T15:08:13Z</time></trkpt>
<trkpt lat="43.06493300" lon="0.29843300"><ele>506</ele><time>2007-09-28T15:08:21Z</time></trkpt>
<trkpt lat="43.06490000" lon="0.29786700"><ele>499</ele><time>2007-09-28T15:08:27Z</time></trkpt>
<trkpt lat="43.06476700" lon="0.29763300"><ele>496</ele><time>2007-09-28T15:08:34Z</time></trkpt>
<trkpt lat="43.06508300" lon="0.29751700"><ele>492</ele><time>2007-09-28T15:08:43Z</time></trkpt>
<trkpt lat="43.06511700" lon="0.29793300"><ele>496</ele><time>2007-09-28T15:08:59Z</time></trkpt>
<trkpt lat="43.06528300" lon="0.29826700"><ele>501</ele><time>2007-09-28T15:09:15Z</time></trkpt>
<trkpt lat="43.06553300" lon="0.29856700"><ele>500</ele><time>2007-09-28T15:09:27Z</time></trkpt>
<trkpt lat="43.06583300" lon="0.29885000"><ele>490</ele><time>2007-09-28T15:09:39Z</time></trkpt>
<trkpt lat="43.06613300" lon="0.29878300"><ele>492</ele><time>2007-09-28T15:09:49Z</time></trkpt>
<trkpt lat="43.06653300" lon="0.29846700"><ele>501</ele><time>2007-09-28T15:10:04Z</time></trkpt>
<trkpt lat="43.06726700" lon="0.29820000"><ele>503</ele><time>2007-09-28T15:10:22Z</time></trkpt>
<trkpt lat="43.06761700" lon="0.29843300"><ele>501</ele><time>2007-09-28T15:10:30Z</time></trkpt>
<trkpt lat="43.06773300" lon="0.29901700"><ele>501</ele><time>2007-09-28T15:10:38Z</time></trkpt>
<trkpt lat="43.06745000" lon="0.30023300"><ele>502</ele><time>2007-09-28T15:11:02Z</time></trkpt>
<trkpt lat="43.06740000" lon="0.30070000"><ele>500</ele><time>2007-09-28T15:11:12Z</time></trkpt>
<trkpt lat="43.06723300" lon="0.30131700"><ele>500</ele><time>2007-09-28T15:11:24Z</time></trkpt>
<trkpt lat="43.06676700" lon="0.30183300"><ele>499</ele><time>2007-09-28T15:11:37Z</time></trkpt>
<trkpt lat="43.06636700" lon="0.30198300"><ele>498</ele><time>2007-09-28T15:11:50Z</time></trkpt>
<trkpt lat="43.06611700" lon="0.30231700"><ele>498</ele><time>2007-09-28T15:12:02Z</time></trkpt>
<trkpt lat="43.06590000" lon="0.30261700"><ele>494</ele><time>2007-09-28T15:12:15Z</time></trkpt>
<trkpt lat="43.06548300" lon="0.30281700"><ele>497</ele><time>2007-09-28T15:12:29Z</time></trkpt>
<trkpt lat="43.06470000" lon="0.30293300"><ele>498</ele><time>2007-09-28T15:12:52Z</time></trkpt>
<trkpt lat="43.06450000" lon="0.30303300"><ele>503</ele><time>2007-09-28T15:12:59Z</time></trkpt>
<trkpt lat="43.06486700" lon="0.30310000"><ele>502</ele><time>2007-09-28T15:13:14Z</time></trkpt>
<trkpt lat="43.06503300" lon="0.30325000"><ele>502</ele><time>2007-09-28T15:13:20Z</time></trkpt>
<trkpt lat="43.06476700" lon="0.30338300"><ele>499</ele><time>2007-09-28T15:13:27Z</time></trkpt>
<trkpt lat="43.06560000" lon="0.30355000"><ele>500</ele><time>2007-09-28T15:13:55Z</time></trkpt>
<trkpt lat="43.06623300" lon="0.30358300"><ele>498</ele><time>2007-09-28T15:14:07Z</time></trkpt>
<trkpt lat="43.06658300" lon="0.30408300"><ele>496</ele><time>2007-09-28T15:14:20Z</time></trkpt>
<trkpt lat="43.06708300" lon="0.30461700"><ele>496</ele><time>2007-09-28T15:14:41Z</time></trkpt>
<trkpt lat="43.06813300" lon="0.30516700"><ele>496</ele><time>2007-09-28T15:15:05Z</time></trkpt>
<trkpt lat="43.06846700" lon="0.30521700"><ele>495</ele><time>2007-09-28T15:15:17Z</time></trkpt>
<trkpt lat="43.06863300" lon="0.30516700"><ele>494</ele><time>2007-09-28T15:15:25Z</time></trkpt>
<trkpt lat="43.06943300" lon="0.29963300"><ele>492</ele><time>2007-09-28T15:17:00Z</time></trkpt>
<trkpt lat="43.06773300" lon="0.29325000"><ele>499</ele><time>2007-09-28T15:19:04Z</time></trkpt>
<trkpt lat="43.06796700" lon="0.29306700"><ele>386</ele><time>2007-09-28T15:19:10Z</time></trkpt>
<trkpt lat="43.06793300" lon="0.29245000"><ele>383</ele><time>2007-09-28T15:19:18Z</time></trkpt>
<trkpt lat="43.06851700" lon="0.29243300"><ele>381</ele><time>2007-09-28T15:19:30Z</time></trkpt>
<trkpt lat="43.06893300" lon="0.29231700"><ele>386</ele><time>2007-09-28T15:19:40Z</time></trkpt>
<trkpt lat="43.06963300" lon="0.29251700"><ele>384</ele><time>2007-09-28T15:20:09Z</time></trkpt>
<trkpt lat="43.06993300" lon="0.29236700"><ele>388</ele><time>2007-09-28T15:20:25Z</time></trkpt>
<trkpt lat="43.07008300" lon="0.29230000"><ele>389</ele><time>2007-09-28T15:20:39Z</time></trkpt>
<trkpt lat="43.07046700" lon="0.29223300"><ele>395</ele><time>2007-09-28T15:21:10Z</time></trkpt>
<trkpt lat="43.07061700" lon="0.29211700"><ele>401</ele><time>2007-09-28T15:21:22Z</time></trkpt>
<trkpt lat="43.07315000" lon="0.29216700"><ele>387</ele><time>2007-09-28T15:22:16Z</time></trkpt>
<trkpt lat="43.07375000" lon="0.29250000"><ele>387</ele><time>2007-09-28T15:22:32Z</time></trkpt>
<trkpt lat="43.07396700" lon="0.29246700"><ele>389</ele><time>2007-09-28T15:22:42Z</time></trkpt>
<trkpt lat="43.07420000" lon="0.29228300"><ele>386</ele><time>2007-09-28T15:22:54Z</time></trkpt>
<trkpt lat="43.07450000" lon="0.29216700"><ele>386</ele><time>2007-09-28T15:23:01Z</time></trkpt>
<trkpt lat="43.07485000" lon="0.29178300"><ele>383</ele><time>2007-09-28T15:23:21Z</time></trkpt>
<trkpt lat="43.07505000" lon="0.29160000"><ele>376</ele><time>2007-09-28T15:23:31Z</time></trkpt>
<trkpt lat="43.07523300" lon="0.29131700"><ele>376</ele><time>2007-09-28T15:23:43Z</time></trkpt>
<trkpt lat="43.07530000" lon="0.29108300"><ele>386</ele><time>2007-09-28T15:23:55Z</time></trkpt>
<trkpt lat="43.07533300" lon="0.29081700"><ele>377</ele><time>2007-09-28T15:24:08Z</time></trkpt>
<trkpt lat="43.07513300" lon="0.28920000"><ele>379</ele><time>2007-09-28T15:24:35Z</time></trkpt>
<trkpt lat="43.07551700" lon="0.28863300"><ele>377</ele><time>2007-09-28T15:24:43Z</time></trkpt>
<trkpt lat="43.07596700" lon="0.28851700"><ele>372</ele><time>2007-09-28T15:24:49Z</time></trkpt>
<trkpt lat="43.07653300" lon="0.28850000"><ele>371</ele><time>2007-09-28T15:24:56Z</time></trkpt>
<trkpt lat="43.07706700" lon="0.28858300"><ele>370</ele><time>2007-09-28T15:25:03Z</time></trkpt>
<trkpt lat="43.07756700" lon="0.28856700"><ele>377</ele><time>2007-09-28T15:25:13Z</time></trkpt>
<trkpt lat="43.07835000" lon="0.28888300"><ele>379</ele><time>2007-09-28T15:25:33Z</time></trkpt>
<trkpt lat="43.07976700" lon="0.28836700"><ele>368</ele><time>2007-09-28T15:26:01Z</time></trkpt>
<trkpt lat="43.07993300" lon="0.28810000"><ele>368</ele><time>2007-09-28T15:26:08Z</time></trkpt>
<trkpt lat="43.08018300" lon="0.28808300"><ele>369</ele><time>2007-09-28T15:26:16Z</time></trkpt>
<trkpt lat="43.08081700" lon="0.28768300"><ele>364</ele><time>2007-09-28T15:26:32Z</time></trkpt>
<trkpt lat="43.08113300" lon="0.28698300"><ele>364</ele><time>2007-09-28T15:26:40Z</time></trkpt>
<trkpt lat="43.08163300" lon="0.28626700"><ele>365</ele><time>2007-09-28T15:26:52Z</time></trkpt>
<trkpt lat="43.08190000" lon="0.28591700"><ele>364</ele><time>2007-09-28T15:26:59Z</time></trkpt>
<trkpt lat="43.08203300" lon="0.28538300"><ele>364</ele><time>2007-09-28T15:27:08Z</time></trkpt>
<trkpt lat="43.08250000" lon="0.28465000"><ele>363</ele><time>2007-09-28T15:27:23Z</time></trkpt>
<trkpt lat="43.08290000" lon="0.28406700"><ele>362</ele><time>2007-09-28T15:27:36Z</time></trkpt>
<trkpt lat="43.08326700" lon="0.28328300"><ele>369</ele><time>2007-09-28T15:27:55Z</time></trkpt>
<trkpt lat="43.08345000" lon="0.28288300"><ele>368</ele><time>2007-09-28T15:28:08Z</time></trkpt>
<trkpt lat="43.08411700" lon="0.28210000"><ele>354</ele><time>2007-09-28T15:28:25Z</time></trkpt>
<trkpt lat="43.08500000" lon="0.28240000"><ele>355</ele><time>2007-09-28T15:28:35Z</time></trkpt>
<trkpt lat="43.08526700" lon="0.28251700"><ele>356</ele><time>2007-09-28T15:28:40Z</time></trkpt>
</trkseg></trk></gpx>